sensor_id;sensor_type;location;lat;lon;timestamp;temperature;humidity
28763;DHT22;15918;51.270;6.522;2022-08-21T00:01:26;23.40;57.30
28763;DHT22;15918;51.270;6.522;2022-08-21T00:03:53;23.40;57.30
28763;DHT22;15918;51.270;6.522;2022-08-21T00:06:18;23.40;57.30
28763;DHT22;15918;51.270;6.522;2022-08-21T00:08:45;23.40;57.30
28763;DHT22;15918;51.270;6.522;2022-08-21T00:11:10;23.30;57.20
28763;DHT22;15918;51.270;6.522;2022-08-21T00:13:36;23.30;57.20
28763;DHT22;15918;51.270;6.522;2022-08-21T00:16:02;23.30;57.20
28763;DHT22;15918;51.270;6.522;2022-08-21T00:18:28;23.40;57.30
28763;DHT22;15918;51.270;6.522;2022-08-21T00:20:54;23.30;57.20
28763;DHT22;15918;51.270;6.522;2022-08-21T00:23:20;23.30;57.20
28763;DHT22;15918;51.270;6.522;2022-08-21T00:25:46;23.30;57.20
28763;DHT22;15918;51.270;6.522;2022-08-21T00:28:13;23.30;57.20
28763;DHT22;15918;51.270;6.522;2022-08-21T00:30:39;23.30;57.20
28763;DHT22;15918;51.270;6.522;2022-08-21T00:33:05;23.30;57.10
28763;DHT22;15918;51.270;6.522;2022-08-21T00:35:39;23.20;57.10
28763;DHT22;15918;51.270;6.522;2022-08-21T00:38:07;23.20;57.00
28763;DHT22;15918;51.270;6.522;2022-08-21T00:40:47;23.20;57.10
28763;DHT22;15918;51.270;6.522;2022-08-21T00:43:16;23.20;57.00
28763;DHT22;15918;51.270;6.522;2022-08-21T00:45:42;23.10;57.10
28763;DHT22;15918;51.270;6.522;2022-08-21T00:48:08;23.10;57.10
28763;DHT22;15918;51.270;6.522;2022-08-21T00:50:38;23.10;57.10
28763;DHT22;15918;51.270;6.522;2022-08-21T00:53:06;23.10;57.10
28763;DHT22;15918;51.270;6.522;2022-08-21T00:55:32;23.10;57.10
28763;DHT22;15918;51.270;6.522;2022-08-21T00:58:00;23.10;57.10
28763;DHT22;15918;51.270;6.522;2022-08-21T01:00:29;23.10;57.10
28763;DHT22;15918;51.270;6.522;2022-08-21T01:03:00;23.10;57.10
28763;DHT22;15918;51.270;6.522;2022-08-21T01:05:27;23.10;57.10
28763;DHT22;15918;51.270;6.522;2022-08-21T01:07:53;23.10;57.70
28763;DHT22;15918;51.270;6.522;2022-08-21T01:10:20;23.00;57.10
28763;DHT22;15918;51.270;6.522;2022-08-21T01:12:45;23.00;57.10
28763;DHT22;15918;51.270;6.522;2022-08-21T01:15:13;23.00;57.10
28763;DHT22;15918;51.270;6.522;2022-08-21T01:17:40;23.00;57.10
28763;DHT22;15918;51.270;6.522;2022-08-21T01:20:08;23.00;57.10
28763;DHT22;15918;51.270;6.522;2022-08-21T01:22:35;23.00;57.10
28763;DHT22;15918;51.270;6.522;2022-08-21T01:25:03;22.90;57.00
28763;DHT22;15918;51.270;6.522;2022-08-21T01:27:28;22.90;57.00
28763;DHT22;15918;51.270;6.522;2022-08-21T01:30:06;22.90;57.10
28763;DHT22;15918;51.270;6.522;2022-08-21T01:32:33;22.90;57.00
28763;DHT22;15918;51.270;6.522;2022-08-21T01:34:59;22.90;57.10
28763;DHT22;15918;51.270;6.522;2022-08-21T01:37:24;22.90;57.10
28763;DHT22;15918;51.270;6.522;2022-08-21T01:39:50;22.90;57.10
28763;DHT22;15918;51.270;6.522;2022-08-21T01:42:17;22.90;57.10
28763;DHT22;15918;51.270;6.522;2022-08-21T01:44:42;22.80;57.10
28763;DHT22;15918;51.270;6.522;2022-08-21T01:47:11;22.80;57.10
28763;DHT22;15918;51.270;6.522;2022-08-21T01:49:38;22.80;57.10
28763;DHT22;15918;51.270;6.522;2022-08-21T01:52:05;22.80;57.10
28763;DHT22;15918;51.270;6.522;2022-08-21T01:54:31;22.80;57.10
28763;DHT22;15918;51.270;6.522;2022-08-21T01:56:58;22.80;57.10
28763;DHT22;15918;51.270;6.522;2022-08-21T01:59:24;22.80;57.20
28763;DHT22;15918;51.270;6.522;2022-08-21T02:01:51;22.80;57.20
28763;DHT22;15918;51.270;6.522;2022-08-21T02:04:19;22.80;57.10
28763;DHT22;15918;51.270;6.522;2022-08-21T02:06:45;22.70;57.10
28763;DHT22;15918;51.270;6.522;2022-08-21T02:09:11;22.70;57.10
28763;DHT22;15918;51.270;6.522;2022-08-21T02:11:37;22.60;57.10
28763;DHT22;15918;51.270;6.522;2022-08-21T02:14:11;22.70;57.10
28763;DHT22;15918;51.270;6.522;2022-08-21T02:16:38;22.70;57.10
28763;DHT22;15918;51.270;6.522;2022-08-21T02:19:04;22.70;57.10
28763;DHT22;15918;51.270;6.522;2022-08-21T02:21:30;22.70;57.10
28763;DHT22;15918;51.270;6.522;2022-08-21T02:23:55;22.60;57.00
28763;DHT22;15918;51.270;6.522;2022-08-21T02:26:21;22.60;57.00
28763;DHT22;15918;51.270;6.522;2022-08-21T02:28:47;22.60;57.10
28763;DHT22;15918;51.270;6.522;2022-08-21T02:31:13;22.60;57.10
28763;DHT22;15918;51.270;6.522;2022-08-21T02:33:39;22.60;57.10
28763;DHT22;15918;51.270;6.522;2022-08-21T02:36:05;22.60;57.10
28763;DHT22;15918;51.270;6.522;2022-08-21T02:38:32;22.60;57.10
28763;DHT22;15918;51.270;6.522;2022-08-21T02:41:00;22.50;57.00
28763;DHT22;15918;51.270;6.522;2022-08-21T02:43:28;22.50;57.10
28763;DHT22;15918;51.270;6.522;2022-08-21T02:45:55;22.50;57.10
28763;DHT22;15918;51.270;6.522;2022-08-21T02:48:23;22.60;57.20
28763;DHT22;15918;51.270;6.522;2022-08-21T02:50:56;22.50;57.20
28763;DHT22;15918;51.270;6.522;2022-08-21T02:53:22;22.50;57.10
28763;DHT22;15918;51.270;6.522;2022-08-21T02:55:50;22.50;57.20
28763;DHT22;15918;51.270;6.522;2022-08-21T02:58:19;22.50;57.20
28763;DHT22;15918;51.270;6.522;2022-08-21T03:00:45;22.50;57.20
28763;DHT22;15918;51.270;6.522;2022-08-21T03:03:11;22.40;57.20
28763;DHT22;15918;51.270;6.522;2022-08-21T03:05:38;22.40;57.20
28763;DHT22;15918;51.270;6.522;2022-08-21T03:08:06;22.50;57.30
28763;DHT22;15918;51.270;6.522;2022-08-21T03:10:35;22.40;57.20
28763;DHT22;15918;51.270;6.522;2022-08-21T03:13:00;22.40;57.20
28763;DHT22;15918;51.270;6.522;2022-08-21T03:15:28;22.40;57.20
28763;DHT22;15918;51.270;6.522;2022-08-21T03:17:54;22.40;57.30
28763;DHT22;15918;51.270;6.522;2022-08-21T03:20:23;22.40;57.20
28763;DHT22;15918;51.270;6.522;2022-08-21T03:22:50;22.40;57.20
28763;DHT22;15918;51.270;6.522;2022-08-21T03:25:16;22.30;57.30
28763;DHT22;15918;51.270;6.522;2022-08-21T03:27:43;22.30;57.20
28763;DHT22;15918;51.270;6.522;2022-08-21T03:30:10;22.30;57.30
28763;DHT22;15918;51.270;6.522;2022-08-21T03:32:36;22.30;57.30
28763;DHT22;15918;51.270;6.522;2022-08-21T03:35:03;22.30;57.30
28763;DHT22;15918;51.270;6.522;2022-08-21T03:37:29;22.30;57.30
28763;DHT22;15918;51.270;6.522;2022-08-21T03:39:55;22.30;57.30
28763;DHT22;15918;51.270;6.522;2022-08-21T03:42:21;22.30;57.30
28763;DHT22;15918;51.270;6.522;2022-08-21T03:44:47;22.30;57.30
28763;DHT22;15918;51.270;6.522;2022-08-21T03:47:12;22.30;57.30
28763;DHT22;15918;51.270;6.522;2022-08-21T03:49:38;22.20;57.20
28763;DHT22;15918;51.270;6.522;2022-08-21T03:52:04;22.20;57.20
28763;DHT22;15918;51.270;6.522;2022-08-21T03:54:30;22.20;57.30
28763;DHT22;15918;51.270;6.522;2022-08-21T03:56:56;22.20;57.30
28763;DHT22;15918;51.270;6.522;2022-08-21T03:59:22;22.20;57.30
28763;DHT22;15918;51.270;6.522;2022-08-21T04:01:57;22.20;57.20
28763;DHT22;15918;51.270;6.522;2022-08-21T04:04:24;22.10;57.10
28763;DHT22;15918;51.270;6.522;2022-08-21T04:06:49;22.20;57.20
28763;DHT22;15918;51.270;6.522;2022-08-21T04:09:16;22.10;57.20
28763;DHT22;15918;51.270;6.522;2022-08-21T04:11:42;22.10;57.20
28763;DHT22;15918;51.270;6.522;2022-08-21T04:14:07;22.10;57.20
28763;DHT22;15918;51.270;6.522;2022-08-21T04:16:33;22.10;57.20
28763;DHT22;15918;51.270;6.522;2022-08-21T04:18:59;22.10;57.30
28763;DHT22;15918;51.270;6.522;2022-08-21T04:21:24;22.00;57.20
28763;DHT22;15918;51.270;6.522;2022-08-21T04:23:50;22.00;57.20
28763;DHT22;15918;51.270;6.522;2022-08-21T04:26:17;22.00;57.20
28763;DHT22;15918;51.270;6.522;2022-08-21T04:28:42;22.00;57.20
28763;DHT22;15918;51.270;6.522;2022-08-21T04:31:09;22.00;57.20
28763;DHT22;15918;51.270;6.522;2022-08-21T04:33:34;22.00;57.10
28763;DHT22;15918;51.270;6.522;2022-08-21T04:36:00;22.00;57.10
28763;DHT22;15918;51.270;6.522;2022-08-21T04:38:27;22.00;57.10
28763;DHT22;15918;51.270;6.522;2022-08-21T04:40:53;22.00;57.10
28763;DHT22;15918;51.270;6.522;2022-08-21T04:43:19;22.00;57.10
28763;DHT22;15918;51.270;6.522;2022-08-21T04:45:48;21.90;57.10
28763;DHT22;15918;51.270;6.522;2022-08-21T04:48:15;21.90;57.10
28763;DHT22;15918;51.270;6.522;2022-08-21T04:51:02;22.00;57.20
28763;DHT22;15918;51.270;6.522;2022-08-21T04:53:37;21.90;57.20
28763;DHT22;15918;51.270;6.522;2022-08-21T04:56:11;21.90;57.20
28763;DHT22;15918;51.270;6.522;2022-08-21T04:58:38;21.90;57.20
28763;DHT22;15918;51.270;6.522;2022-08-21T05:01:07;21.90;57.30
28763;DHT22;15918;51.270;6.522;2022-08-21T05:03:34;21.90;57.20
28763;DHT22;15918;51.270;6.522;2022-08-21T05:06:05;21.80;57.20
28763;DHT22;15918;51.270;6.522;2022-08-21T05:08:32;21.80;57.20
28763;DHT22;15918;51.270;6.522;2022-08-21T05:10:59;21.80;57.30
28763;DHT22;15918;51.270;6.522;2022-08-21T05:13:25;21.80;57.30
28763;DHT22;15918;51.270;6.522;2022-08-21T05:15:50;21.80;57.40
28763;DHT22;15918;51.270;6.522;2022-08-21T05:18:16;21.80;57.40
28763;DHT22;15918;51.270;6.522;2022-08-21T05:20:42;21.80;57.50
28763;DHT22;15918;51.270;6.522;2022-08-21T05:23:12;21.80;57.50
28763;DHT22;15918;51.270;6.522;2022-08-21T05:25:38;21.80;57.50
28763;DHT22;15918;51.270;6.522;2022-08-21T05:28:04;21.80;57.50
28763;DHT22;15918;51.270;6.522;2022-08-21T05:30:31;21.80;57.60
28763;DHT22;15918;51.270;6.522;2022-08-21T05:33:01;21.80;57.60
28763;DHT22;15918;51.270;6.522;2022-08-21T05:35:29;21.80;57.70
28763;DHT22;15918;51.270;6.522;2022-08-21T05:37:55;21.70;57.70
28763;DHT22;15918;51.270;6.522;2022-08-21T05:40:22;21.70;57.70
28763;DHT22;15918;51.270;6.522;2022-08-21T05:42:48;21.70;57.60
28763;DHT22;15918;51.270;6.522;2022-08-21T05:45:14;21.80;57.70
28763;DHT22;15918;51.270;6.522;2022-08-21T05:47:39;21.80;57.70
28763;DHT22;15918;51.270;6.522;2022-08-21T05:50:05;21.80;57.80
28763;DHT22;15918;51.270;6.522;2022-08-21T05:52:31;21.80;57.70
28763;DHT22;15918;51.270;6.522;2022-08-21T05:54:57;21.80;57.70
28763;DHT22;15918;51.270;6.522;2022-08-21T05:57:22;21.80;57.60
28763;DHT22;15918;51.270;6.522;2022-08-21T05:59:49;21.80;57.60
28763;DHT22;15918;51.270;6.522;2022-08-21T06:02:17;21.80;57.70
28763;DHT22;15918;51.270;6.522;2022-08-21T06:04:43;21.90;57.70
28763;DHT22;15918;51.270;6.522;2022-08-21T06:07:09;21.90;57.70
28763;DHT22;15918;51.270;6.522;2022-08-21T06:09:35;21.90;57.70
28763;DHT22;15918;51.270;6.522;2022-08-21T06:12:05;21.90;57.60
28763;DHT22;15918;51.270;6.522;2022-08-21T06:14:31;21.90;57.50
28763;DHT22;15918;51.270;6.522;2022-08-21T06:17:09;22.00;57.60
28763;DHT22;15918;51.270;6.522;2022-08-21T06:19:34;22.00;57.60
28763;DHT22;15918;51.270;6.522;2022-08-21T06:22:00;22.00;57.60
28763;DHT22;15918;51.270;6.522;2022-08-21T06:24:26;22.10;57.60
28763;DHT22;15918;51.270;6.522;2022-08-21T06:26:53;22.20;57.70
28763;DHT22;15918;51.270;6.522;2022-08-21T06:29:19;22.20;57.60
28763;DHT22;15918;51.270;6.522;2022-08-21T06:31:46;22.20;57.50
28763;DHT22;15918;51.270;6.522;2022-08-21T06:34:12;22.20;57.30
28763;DHT22;15918;51.270;6.522;2022-08-21T06:36:38;22.30;57.30
28763;DHT22;15918;51.270;6.522;2022-08-21T06:39:04;22.40;57.30
28763;DHT22;15918;51.270;6.522;2022-08-21T06:41:30;22.30;57.20
28763;DHT22;15918;51.270;6.522;2022-08-21T06:43:56;22.40;57.20
28763;DHT22;15918;51.270;6.522;2022-08-21T06:46:24;22.40;57.10
28763;DHT22;15918;51.270;6.522;2022-08-21T06:48:49;22.40;57.00
28763;DHT22;15918;51.270;6.522;2022-08-21T06:51:15;22.50;57.00
28763;DHT22;15918;51.270;6.522;2022-08-21T06:53:41;22.50;57.00
28763;DHT22;15918;51.270;6.522;2022-08-21T06:56:06;22.60;56.90
28763;DHT22;15918;51.270;6.522;2022-08-21T06:58:32;22.60;56.90
28763;DHT22;15918;51.270;6.522;2022-08-21T07:00:58;22.70;56.90
28763;DHT22;15918;51.270;6.522;2022-08-21T07:03:29;22.70;56.80
28763;DHT22;15918;51.270;6.522;2022-08-21T07:05:55;22.80;56.70
28763;DHT22;15918;51.270;6.522;2022-08-21T07:08:24;22.80;56.60
28763;DHT22;15918;51.270;6.522;2022-08-21T07:10:53;22.80;56.40
28763;DHT22;15918;51.270;6.522;2022-08-21T07:13:19;22.90;56.40
28763;DHT22;15918;51.270;6.522;2022-08-21T07:15:44;22.90;56.30
28763;DHT22;15918;51.270;6.522;2022-08-21T07:18:11;23.00;56.30
28763;DHT22;15918;51.270;6.522;2022-08-21T07:20:37;23.00;56.20
28763;DHT22;15918;51.270;6.522;2022-08-21T07:23:08;23.00;56.00
28763;DHT22;15918;51.270;6.522;2022-08-21T07:25:34;23.00;55.90
28763;DHT22;15918;51.270;6.522;2022-08-21T07:28:01;23.10;55.90
28763;DHT22;15918;51.270;6.522;2022-08-21T07:30:26;23.10;55.80
28763;DHT22;15918;51.270;6.522;2022-08-21T07:32:52;23.10;55.60
28763;DHT22;15918;51.270;6.522;2022-08-21T07:35:21;23.10;55.50
28763;DHT22;15918;51.270;6.522;2022-08-21T07:37:47;23.20;55.70
28763;DHT22;15918;51.270;6.522;2022-08-21T07:40:13;23.20;55.70
28763;DHT22;15918;51.270;6.522;2022-08-21T07:42:41;23.20;55.70
28763;DHT22;15918;51.270;6.522;2022-08-21T07:45:07;23.30;55.80
28763;DHT22;15918;51.270;6.522;2022-08-21T07:47:33;23.20;55.80
28763;DHT22;15918;51.270;6.522;2022-08-21T07:49:59;23.30;55.80
28763;DHT22;15918;51.270;6.522;2022-08-21T07:52:24;23.30;55.80
28763;DHT22;15918;51.270;6.522;2022-08-21T07:54:50;23.30;55.80
28763;DHT22;15918;51.270;6.522;2022-08-21T07:57:16;23.40;55.70
28763;DHT22;15918;51.270;6.522;2022-08-21T07:59:41;23.40;55.50
28763;DHT22;15918;51.270;6.522;2022-08-21T08:02:07;23.40;55.30
28763;DHT22;15918;51.270;6.522;2022-08-21T08:04:33;23.50;55.20
28763;DHT22;15918;51.270;6.522;2022-08-21T08:06:58;23.50;55.10
28763;DHT22;15918;51.270;6.522;2022-08-21T08:09:24;23.50;55.10
28763;DHT22;15918;51.270;6.522;2022-08-21T08:11:49;23.50;55.00
28763;DHT22;15918;51.270;6.522;2022-08-21T08:14:15;23.50;54.90
28763;DHT22;15918;51.270;6.522;2022-08-21T08:16:41;23.50;54.90
28763;DHT22;15918;51.270;6.522;2022-08-21T08:19:07;23.50;54.80
28763;DHT22;15918;51.270;6.522;2022-08-21T08:21:32;23.60;54.70
28763;DHT22;15918;51.270;6.522;2022-08-21T08:23:59;23.60;54.60
28763;DHT22;15918;51.270;6.522;2022-08-21T08:26:25;23.60;54.60
28763;DHT22;15918;51.270;6.522;2022-08-21T08:28:50;23.60;54.60
28763;DHT22;15918;51.270;6.522;2022-08-21T08:31:16;23.60;54.60
28763;DHT22;15918;51.270;6.522;2022-08-21T08:33:42;23.60;54.50
28763;DHT22;15918;51.270;6.522;2022-08-21T08:36:13;23.70;54.50
28763;DHT22;15918;51.270;6.522;2022-08-21T08:38:39;23.70;54.30
28763;DHT22;15918;51.270;6.522;2022-08-21T08:41:15;23.70;54.20
28763;DHT22;15918;51.270;6.522;2022-08-21T08:43:42;23.70;54.10
28763;DHT22;15918;51.270;6.522;2022-08-21T08:46:14;23.70;54.30
28763;DHT22;15918;51.270;6.522;2022-08-21T08:48:53;23.70;54.40
28763;DHT22;15918;51.270;6.522;2022-08-21T08:51:34;23.80;54.20
28763;DHT22;15918;51.270;6.522;2022-08-21T08:54:07;23.80;54.10
28763;DHT22;15918;51.270;6.522;2022-08-21T08:56:34;23.80;54.20
28763;DHT22;15918;51.270;6.522;2022-08-21T08:59:07;23.80;54.20
28763;DHT22;15918;51.270;6.522;2022-08-21T09:01:34;23.90;54.10
28763;DHT22;15918;51.270;6.522;2022-08-21T09:03:59;23.90;54.20
28763;DHT22;15918;51.270;6.522;2022-08-21T09:06:39;23.90;54.20
28763;DHT22;15918;51.270;6.522;2022-08-21T09:15:46;24.00;54.00
28763;DHT22;15918;51.270;6.522;2022-08-21T09:27:09;24.00;54.00
28763;DHT22;15918;51.270;6.522;2022-08-21T09:29:49;24.10;53.80
28763;DHT22;15918;51.270;6.522;2022-08-21T09:32:21;24.10;53.70
28763;DHT22;15918;51.270;6.522;2022-08-21T09:35:06;24.10;53.70
28763;DHT22;15918;51.270;6.522;2022-08-21T09:37:44;24.20;53.60
28763;DHT22;15918;51.270;6.522;2022-08-21T09:40:37;24.20;53.60
28763;DHT22;15918;51.270;6.522;2022-08-21T09:43:07;24.20;53.30
28763;DHT22;15918;51.270;6.522;2022-08-21T09:45:43;24.20;53.20
28763;DHT22;15918;51.270;6.522;2022-08-21T09:48:24;24.20;53.20
28763;DHT22;15918;51.270;6.522;2022-08-21T09:50:51;24.20;53.10
28763;DHT22;15918;51.270;6.522;2022-08-21T09:53:28;24.30;53.00
28763;DHT22;15918;51.270;6.522;2022-08-21T09:56:19;24.30;53.00
28763;DHT22;15918;51.270;6.522;2022-08-21T09:59:14;24.30;52.90
28763;DHT22;15918;51.270;6.522;2022-08-21T10:01:44;24.30;52.90
28763;DHT22;15918;51.270;6.522;2022-08-21T10:04:13;24.40;53.20
28763;DHT22;15918;51.270;6.522;2022-08-21T10:06:39;24.30;53.00
28763;DHT22;15918;51.270;6.522;2022-08-21T10:09:16;24.40;53.00
28763;DHT22;15918;51.270;6.522;2022-08-21T10:11:59;24.40;53.00
28763;DHT22;15918;51.270;6.522;2022-08-21T10:17:25;24.40;53.00
28763;DHT22;15918;51.270;6.522;2022-08-21T10:20:17;24.40;53.10
28763;DHT22;15918;51.270;6.522;2022-08-21T10:23:07;24.40;53.00
28763;DHT22;15918;51.270;6.522;2022-08-21T10:25:51;24.50;53.10
28763;DHT22;15918;51.270;6.522;2022-08-21T10:28:25;24.50;52.90
28763;DHT22;15918;51.270;6.522;2022-08-21T10:39:25;24.60;52.80
28763;DHT22;15918;51.270;6.522;2022-08-21T10:44:53;24.60;52.60
28763;DHT22;15918;51.270;6.522;2022-08-21T10:47:28;24.60;52.60
28763;DHT22;15918;51.270;6.522;2022-08-21T10:50:29;24.60;52.50
28763;DHT22;15918;51.270;6.522;2022-08-21T10:53:05;24.70;52.40
28763;DHT22;15918;51.270;6.522;2022-08-21T10:55:41;24.70;52.50
28763;DHT22;15918;51.270;6.522;2022-08-21T10:58:17;24.70;52.40
28763;DHT22;15918;51.270;6.522;2022-08-21T11:00:55;24.80;52.40
28763;DHT22;15918;51.270;6.522;2022-08-21T11:03:30;24.80;52.60
28763;DHT22;15918;51.270;6.522;2022-08-21T11:06:22;24.80;52.60
28763;DHT22;15918;51.270;6.522;2022-08-21T11:08:58;24.80;52.40
28763;DHT22;15918;51.270;6.522;2022-08-21T11:11:34;24.80;52.30
28763;DHT22;15918;51.270;6.522;2022-08-21T11:14:08;24.90;52.30
28763;DHT22;15918;51.270;6.522;2022-08-21T11:16:42;24.90;52.30
28763;DHT22;15918;51.270;6.522;2022-08-21T11:19:19;24.90;52.20
28763;DHT22;15918;51.270;6.522;2022-08-21T11:22:15;24.90;52.10
28763;DHT22;15918;51.270;6.522;2022-08-21T11:24:51;25.00;52.00
28763;DHT22;15918;51.270;6.522;2022-08-21T11:27:24;25.00;52.00
28763;DHT22;15918;51.270;6.522;2022-08-21T11:29:57;25.00;52.20
28763;DHT22;15918;51.270;6.522;2022-08-21T11:38:18;25.10;52.00
28763;DHT22;15918;51.270;6.522;2022-08-21T11:43:20;25.10;52.00
28763;DHT22;15918;51.270;6.522;2022-08-21T11:45:54;25.20;51.80
28763;DHT22;15918;51.270;6.522;2022-08-21T11:51:10;25.20;51.50
28763;DHT22;15918;51.270;6.522;2022-08-21T11:53:38;25.20;51.50
28763;DHT22;15918;51.270;6.522;2022-08-21T11:56:19;25.30;51.50
28763;DHT22;15918;51.270;6.522;2022-08-21T11:58:51;25.30;51.40
28763;DHT22;15918;51.270;6.522;2022-08-21T12:01:25;25.30;51.40
28763;DHT22;15918;51.270;6.522;2022-08-21T12:04:00;25.40;51.30
28763;DHT22;15918;51.270;6.522;2022-08-21T12:06:36;25.40;51.10
28763;DHT22;15918;51.270;6.522;2022-08-21T12:09:08;25.40;51.10
28763;DHT22;15918;51.270;6.522;2022-08-21T12:11:46;25.40;50.80
28763;DHT22;15918;51.270;6.522;2022-08-21T12:14:16;25.50;50.40
28763;DHT22;15918;51.270;6.522;2022-08-21T12:16:46;25.50;50.60
28763;DHT22;15918;51.270;6.522;2022-08-21T12:21:54;25.50;50.60
28763;DHT22;15918;51.270;6.522;2022-08-21T12:27:27;25.60;50.60
28763;DHT22;15918;51.270;6.522;2022-08-21T12:30:06;25.60;50.60
28763;DHT22;15918;51.270;6.522;2022-08-21T12:32:46;25.60;50.20
28763;DHT22;15918;51.270;6.522;2022-08-21T12:35:24;25.60;50.30
28763;DHT22;15918;51.270;6.522;2022-08-21T12:40:40;25.60;49.70
28763;DHT22;15918;51.270;6.522;2022-08-21T12:43:13;25.60;49.80
28763;DHT22;15918;51.270;6.522;2022-08-21T12:45:45;25.60;49.70
28763;DHT22;15918;51.270;6.522;2022-08-21T12:48:27;25.60;49.80
28763;DHT22;15918;51.270;6.522;2022-08-21T12:50:57;25.60;50.00
28763;DHT22;15918;51.270;6.522;2022-08-21T12:53:38;25.60;50.00
28763;DHT22;15918;51.270;6.522;2022-08-21T12:56:12;25.70;49.90
28763;DHT22;15918;51.270;6.522;2022-08-21T12:59:06;25.70;49.70
28763;DHT22;15918;51.270;6.522;2022-08-21T13:01:36;25.70;49.60
28763;DHT22;15918;51.270;6.522;2022-08-21T13:04:08;25.70;49.70
28763;DHT22;15918;51.270;6.522;2022-08-21T13:06:40;25.70;49.60
28763;DHT22;15918;51.270;6.522;2022-08-21T13:09:16;25.70;49.70
28763;DHT22;15918;51.270;6.522;2022-08-21T13:11:45;25.80;49.60
28763;DHT22;15918;51.270;6.522;2022-08-21T13:14:30;25.70;49.60
28763;DHT22;15918;51.270;6.522;2022-08-21T13:16:59;25.80;49.40
28763;DHT22;15918;51.270;6.522;2022-08-21T13:19:26;25.80;49.20
28763;DHT22;15918;51.270;6.522;2022-08-21T13:21:53;25.80;49.00
28763;DHT22;15918;51.270;6.522;2022-08-21T13:24:26;25.80;48.90
28763;DHT22;15918;51.270;6.522;2022-08-21T13:26:53;25.80;48.80
28763;DHT22;15918;51.270;6.522;2022-08-21T13:29:22;25.80;48.90
28763;DHT22;15918;51.270;6.522;2022-08-21T13:31:59;25.80;48.80
28763;DHT22;15918;51.270;6.522;2022-08-21T13:34:29;25.90;48.90
28763;DHT22;15918;51.270;6.522;2022-08-21T13:37:04;25.80;48.90
28763;DHT22;15918;51.270;6.522;2022-08-21T13:39:31;25.90;48.80
28763;DHT22;15918;51.270;6.522;2022-08-21T13:41:59;25.90;49.00
28763;DHT22;15918;51.270;6.522;2022-08-21T13:44:40;25.90;48.90
28763;DHT22;15918;51.270;6.522;2022-08-21T13:47:06;25.90;48.80
28763;DHT22;15918;51.270;6.522;2022-08-21T13:49:38;25.90;48.90
28763;DHT22;15918;51.270;6.522;2022-08-21T13:52:23;25.90;48.80
28763;DHT22;15918;51.270;6.522;2022-08-21T13:55:11;25.90;48.80
28763;DHT22;15918;51.270;6.522;2022-08-21T13:57:37;25.90;48.80
28763;DHT22;15918;51.270;6.522;2022-08-21T14:02:43;26.00;48.90
28763;DHT22;15918;51.270;6.522;2022-08-21T14:05:44;25.90;49.10
28763;DHT22;15918;51.270;6.522;2022-08-21T14:10:58;25.90;48.90
28763;DHT22;15918;51.270;6.522;2022-08-21T14:13:29;25.90;48.80
28763;DHT22;15918;51.270;6.522;2022-08-21T14:16:00;25.90;49.00
28763;DHT22;15918;51.270;6.522;2022-08-21T14:18:27;25.90;49.10
28763;DHT22;15918;51.270;6.522;2022-08-21T14:21:07;26.00;49.10
28763;DHT22;15918;51.270;6.522;2022-08-21T14:23:33;26.00;48.90
28763;DHT22;15918;51.270;6.522;2022-08-21T14:26:02;26.00;49.10
28763;DHT22;15918;51.270;6.522;2022-08-21T14:28:31;26.00;48.90
28763;DHT22;15918;51.270;6.522;2022-08-21T14:30:58;26.00;48.90
28763;DHT22;15918;51.270;6.522;2022-08-21T14:33:31;26.00;48.70
28763;DHT22;15918;51.270;6.522;2022-08-21T14:35:58;26.00;48.80
28763;DHT22;15918;51.270;6.522;2022-08-21T14:38:26;26.00;48.90
28763;DHT22;15918;51.270;6.522;2022-08-21T14:40:55;26.00;48.80
28763;DHT22;15918;51.270;6.522;2022-08-21T14:43:22;26.00;48.50
28763;DHT22;15918;51.270;6.522;2022-08-21T14:45:48;26.00;48.30
28763;DHT22;15918;51.270;6.522;2022-08-21T14:48:14;26.00;48.10
28763;DHT22;15918;51.270;6.522;2022-08-21T14:50:40;26.00;47.70
28763;DHT22;15918;51.270;6.522;2022-08-21T14:53:07;26.00;46.90
28763;DHT22;15918;51.270;6.522;2022-08-21T14:55:33;26.00;46.90
28763;DHT22;15918;51.270;6.522;2022-08-21T14:58:22;26.00;46.90
28763;DHT22;15918;51.270;6.522;2022-08-21T15:00:50;26.00;47.00
28763;DHT22;15918;51.270;6.522;2022-08-21T15:03:18;26.00;46.80
28763;DHT22;15918;51.270;6.522;2022-08-21T15:05:44;26.00;47.00
28763;DHT22;15918;51.270;6.522;2022-08-21T15:08:10;26.00;47.30
28763;DHT22;15918;51.270;6.522;2022-08-21T15:10:35;26.00;47.50
28763;DHT22;15918;51.270;6.522;2022-08-21T15:13:02;26.00;47.50
28763;DHT22;15918;51.270;6.522;2022-08-21T15:15:30;26.00;47.20
28763;DHT22;15918;51.270;6.522;2022-08-21T15:17:57;26.00;46.70
28763;DHT22;15918;51.270;6.522;2022-08-21T15:20:23;25.90;46.70
28763;DHT22;15918;51.270;6.522;2022-08-21T15:22:48;25.90;46.50
28763;DHT22;15918;51.270;6.522;2022-08-21T15:25:14;25.90;46.20
28763;DHT22;15918;51.270;6.522;2022-08-21T15:27:40;25.90;46.10
28763;DHT22;15918;51.270;6.522;2022-08-21T15:30:06;25.90;46.50
28763;DHT22;15918;51.270;6.522;2022-08-21T15:32:31;25.90;46.40
28763;DHT22;15918;51.270;6.522;2022-08-21T15:34:58;25.90;45.90
28763;DHT22;15918;51.270;6.522;2022-08-21T15:37:24;25.90;45.90
28763;DHT22;15918;51.270;6.522;2022-08-21T15:39:51;25.90;45.70
28763;DHT22;15918;51.270;6.522;2022-08-21T15:42:18;25.90;45.90
28763;DHT22;15918;51.270;6.522;2022-08-21T15:44:44;25.90;45.50
28763;DHT22;15918;51.270;6.522;2022-08-21T15:47:14;25.90;45.40
28763;DHT22;15918;51.270;6.522;2022-08-21T15:49:41;25.90;45.30
28763;DHT22;15918;51.270;6.522;2022-08-21T15:52:11;25.80;45.60
28763;DHT22;15918;51.270;6.522;2022-08-21T15:54:36;25.80;45.80
28763;DHT22;15918;51.270;6.522;2022-08-21T15:57:02;25.80;46.50
28763;DHT22;15918;51.270;6.522;2022-08-21T15:59:37;25.90;46.80
28763;DHT22;15918;51.270;6.522;2022-08-21T16:02:06;25.80;46.90
28763;DHT22;15918;51.270;6.522;2022-08-21T16:04:32;25.80;47.30
28763;DHT22;15918;51.270;6.522;2022-08-21T16:06:58;25.80;47.80
28763;DHT22;15918;51.270;6.522;2022-08-21T16:09:23;25.70;48.70
28763;DHT22;15918;51.270;6.522;2022-08-21T16:11:50;25.70;48.20
28763;DHT22;15918;51.270;6.522;2022-08-21T16:14:16;25.70;48.40
28763;DHT22;15918;51.270;6.522;2022-08-21T16:16:42;25.70;48.50
28763;DHT22;15918;51.270;6.522;2022-08-21T16:19:09;25.70;48.60
28763;DHT22;15918;51.270;6.522;2022-08-21T16:21:36;25.70;48.70
28763;DHT22;15918;51.270;6.522;2022-08-21T16:24:01;25.80;48.80
28763;DHT22;15918;51.270;6.522;2022-08-21T16:26:28;25.70;48.90
28763;DHT22;15918;51.270;6.522;2022-08-21T16:28:55;25.70;48.90
28763;DHT22;15918;51.270;6.522;2022-08-21T16:31:23;25.80;49.00
28763;DHT22;15918;51.270;6.522;2022-08-21T16:33:51;25.80;49.00
28763;DHT22;15918;51.270;6.522;2022-08-21T16:36:18;25.80;48.90
28763;DHT22;15918;51.270;6.522;2022-08-21T16:38:44;25.80;49.00